createdAt,value
2022-11-14T00:01:12.724Z,7.34
2022-11-14T00:03:39.888Z,7.28
2022-11-14T00:06:07.814Z,7.22
2022-11-14T00:08:35.357Z,7.15
2022-11-14T00:11:02.675Z,7.20
2022-11-14T00:13:29.641Z,7.13
2022-11-14T00:15:57.842Z,7.10
2022-11-14T00:18:24.840Z,7.16
2022-11-14T00:20:53.525Z,7.17
2022-11-14T00:23:21.833Z,7.18
2022-11-14T00:25:49.048Z,7.25
2022-11-14T00:28:16.530Z,7.22
2022-11-14T00:30:50.428Z,7.08
2022-11-14T00:33:21.025Z,7.18
2022-11-14T00:35:53.430Z,7.19
2022-11-14T00:38:20.585Z,7.21
2022-11-14T00:40:47.635Z,7.11
2022-11-14T00:43:14.709Z,7.19
2022-11-14T00:45:45.101Z,7.16
2022-11-14T00:48:12.072Z,7.15
2022-11-14T00:50:39.403Z,7.27
2022-11-14T00:53:06.382Z,7.11
2022-11-14T00:55:33.348Z,7.14
2022-11-14T00:58:00.306Z,7.01
2022-11-14T01:00:27.437Z,6.95
2022-11-14T01:02:56.933Z,6.95
2022-11-14T01:05:25.546Z,6.93
2022-11-14T01:07:52.896Z,6.84
2022-11-14T01:10:21.014Z,6.82
2022-11-14T01:12:48.207Z,6.77
2022-11-14T01:15:15.229Z,6.74
2022-11-14T01:17:42.223Z,6.72
2022-11-14T01:20:09.513Z,6.81
2022-11-14T01:22:36.477Z,6.85
2022-11-14T01:25:03.598Z,6.86
2022-11-14T01:27:33.668Z,6.86
2022-11-14T01:30:00.728Z,6.83
2022-11-14T01:32:28.528Z,6.84
2022-11-14T01:34:55.531Z,6.86
2022-11-14T01:37:22.788Z,6.72
2022-11-14T01:39:49.773Z,6.70
2022-11-14T01:42:17.739Z,6.76
2022-11-14T01:44:52.587Z,6.69
2022-11-14T01:47:29.031Z,6.78
2022-11-14T01:50:01.096Z,6.82
2022-11-14T01:52:33.310Z,6.81
2022-11-14T01:55:05.007Z,6.79
2022-11-14T01:57:42.320Z,6.80
2022-11-14T02:00:12.821Z,6.71
2022-11-14T02:02:39.762Z,6.61
2022-11-14T02:05:11.590Z,6.50
2022-11-14T02:07:41.468Z,6.50
2022-11-14T02:10:19.303Z,6.49
2022-11-14T02:12:46.952Z,6.58
2022-11-14T02:15:15.009Z,6.63
2022-11-14T02:17:44.272Z,6.68
2022-11-14T02:20:11.751Z,6.71
2022-11-14T02:22:42.218Z,6.70
2022-11-14T02:25:12.986Z,6.62
2022-11-14T02:27:41.485Z,6.60
2022-11-14T02:30:18.297Z,6.66
2022-11-14T02:33:09.290Z,6.62
2022-11-14T02:35:32.537Z,6.59
2022-11-14T02:37:59.533Z,6.48
2022-11-14T02:40:26.510Z,6.51
2022-11-14T02:42:53.462Z,6.54
2022-11-14T02:45:20.980Z,6.41
2022-11-14T02:47:48.326Z,6.49
2022-11-14T02:50:15.361Z,6.47
2022-11-14T02:52:42.469Z,6.52
2022-11-14T02:55:10.313Z,6.53
2022-11-14T02:57:37.381Z,6.45
2022-11-14T03:00:08.834Z,6.39
2022-11-14T03:02:40.488Z,6.35
2022-11-14T03:05:07.951Z,6.34
2022-11-14T03:07:34.972Z,6.31
2022-11-14T03:10:02.322Z,6.34
2022-11-14T03:12:29.294Z,6.32
2022-11-14T03:14:56.396Z,6.31
2022-11-14T03:17:24.693Z,6.35
2022-11-14T03:19:51.636Z,6.36
2022-11-14T03:22:18.615Z,6.35
2022-11-14T03:24:45.532Z,6.32
2022-11-14T03:27:12.498Z,6.36
2022-11-14T03:29:39.484Z,6.29
2022-11-14T03:32:06.492Z,6.32
2022-11-14T03:34:33.674Z,6.31
2022-11-14T03:37:00.806Z,6.32
2022-11-14T03:39:28.002Z,6.30
2022-11-14T03:41:55.011Z,6.30
2022-11-14T03:44:22.100Z,6.28
2022-11-14T03:46:49.061Z,6.25
2022-11-14T03:49:16.026Z,6.31
2022-11-14T03:51:42.974Z,6.32
2022-11-14T03:54:10.050Z,6.34
2022-11-14T03:56:37.064Z,6.31
2022-11-14T03:59:04.215Z,6.33
2022-11-14T04:01:31.231Z,6.34
2022-11-14T04:03:58.230Z,6.29
2022-11-14T04:06:25.230Z,6.25
2022-11-14T04:08:52.146Z,6.26
2022-11-14T04:11:19.820Z,6.20
2022-11-14T04:13:46.805Z,6.19
2022-11-14T04:16:13.765Z,6.18
2022-11-14T04:18:40.818Z,6.25
2022-11-14T04:21:07.765Z,6.26
2022-11-14T04:23:34.696Z,6.28
2022-11-14T04:26:02.000Z,6.29
2022-11-14T04:28:29.080Z,6.27
2022-11-14T04:30:56.251Z,6.29
2022-11-14T04:33:23.278Z,6.29
2022-11-14T04:35:50.220Z,6.20
2022-11-14T04:38:17.256Z,6.22
2022-11-14T04:40:51.973Z,6.24
2022-11-14T04:43:20.570Z,6.26
2022-11-14T04:45:47.909Z,6.12
2022-11-14T04:48:15.022Z,6.16
2022-11-14T04:50:42.000Z,6.15
2022-11-14T04:53:08.971Z,6.11
2022-11-14T04:55:46.694Z,6.05
2022-11-14T04:58:13.698Z,6.08
2022-11-14T05:00:40.826Z,6.04
2022-11-14T05:03:08.729Z,6.07
2022-11-14T05:05:40.696Z,6.03
2022-11-14T05:08:08.853Z,6.04
2022-11-14T05:10:35.857Z,6.06
2022-11-14T05:13:02.857Z,5.96
2022-11-14T05:15:29.950Z,5.89
2022-11-14T05:17:58.923Z,8.62
2022-11-14T05:20:25.984Z,6.09
2022-11-14T05:22:55.230Z,5.92
2022-11-14T05:25:23.290Z,5.93
2022-11-14T05:27:50.284Z,5.88
2022-11-14T05:30:17.402Z,5.86
2022-11-14T05:32:44.803Z,5.84
2022-11-14T05:35:12.190Z,5.80
2022-11-14T05:37:39.469Z,5.83
2022-11-14T05:40:07.299Z,5.76
2022-11-14T05:42:34.351Z,5.78
2022-11-14T05:45:01.397Z,5.76
2022-11-14T05:47:28.525Z,5.76
2022-11-14T05:49:55.463Z,5.79
2022-11-14T05:52:22.500Z,5.74
2022-11-14T05:54:49.437Z,5.73
2022-11-14T05:57:16.524Z,5.72
2022-11-14T05:59:43.506Z,5.75
2022-11-14T06:02:10.682Z,5.72
2022-11-14T06:04:37.788Z,5.72
2022-11-14T06:07:04.877Z,5.69
2022-11-14T06:09:31.922Z,5.66
2022-11-14T06:11:58.918Z,5.65
2022-11-14T06:14:25.874Z,5.63
2022-11-14T06:16:52.816Z,5.60
2022-11-14T06:19:21.773Z,5.62
2022-11-14T06:21:48.718Z,5.59
2022-11-14T06:24:15.834Z,5.55
2022-11-14T06:26:42.881Z,5.56
2022-11-14T06:29:10.643Z,5.52
2022-11-14T06:31:37.643Z,5.51
2022-11-14T06:34:06.226Z,5.48
2022-11-14T06:36:33.241Z,5.49
2022-11-14T06:39:00.226Z,5.50
2022-11-14T06:41:27.316Z,5.43
2022-11-14T06:43:54.860Z,5.41
2022-11-14T06:46:23.229Z,8.13
2022-11-14T06:48:52.540Z,10.32
2022-11-14T06:51:19.897Z,11.61
2022-11-14T06:53:46.861Z,12.46
2022-11-14T06:56:16.986Z,13.09
2022-11-14T06:58:49.467Z,13.53
2022-11-14T07:01:26.147Z,13.84
2022-11-14T07:03:53.322Z,14.10
2022-11-14T07:06:26.753Z,14.30
2022-11-14T07:08:55.836Z,14.46
2022-11-14T07:11:29.662Z,14.62
2022-11-14T07:14:02.818Z,14.75
2022-11-14T07:16:33.349Z,14.88
2022-11-14T07:19:01.865Z,14.98
2022-11-14T07:21:31.064Z,15.07
2022-11-14T07:23:58.757Z,15.17
2022-11-14T07:26:26.190Z,15.26
2022-11-14T07:28:57.786Z,15.35
2022-11-14T07:31:27.984Z,15.42
2022-11-14T07:33:55.446Z,15.46
2022-11-14T07:36:23.225Z,15.55
2022-11-14T07:38:50.337Z,15.59
2022-11-14T07:41:17.533Z,15.63
2022-11-14T07:43:45.180Z,15.67
2022-11-14T07:46:18.053Z,15.70
2022-11-14T07:48:45.748Z,15.72
2022-11-14T07:51:18.920Z,15.77
2022-11-14T07:53:46.129Z,15.80
2022-11-14T07:56:13.537Z,15.85
2022-11-14T07:58:41.662Z,15.88
2022-11-14T08:01:12.008Z,15.90
2022-11-14T08:03:45.099Z,15.93
2022-11-14T08:06:16.186Z,15.94
2022-11-14T08:08:43.629Z,15.97
2022-11-14T08:11:11.135Z,15.99
2022-11-14T08:13:38.443Z,16.01
2022-11-14T08:16:13.849Z,16.02
2022-11-14T08:18:41.766Z,16.03
2022-11-14T08:21:08.902Z,16.06
2022-11-14T08:23:36.275Z,16.08
2022-11-14T08:26:03.704Z,16.08
2022-11-14T08:28:30.989Z,16.11
2022-11-14T08:31:05.482Z,16.12
2022-11-14T08:33:32.745Z,16.14
2022-11-14T08:36:03.995Z,16.14
2022-11-14T08:38:33.059Z,16.17
2022-11-14T08:41:02.160Z,16.17
2022-11-14T08:43:29.905Z,16.20
2022-11-14T08:46:02.336Z,16.21
2022-11-14T08:48:30.906Z,16.21
2022-11-14T08:51:02.579Z,16.22
2022-11-14T08:53:29.596Z,16.24
2022-11-14T08:55:56.554Z,16.23
2022-11-14T08:58:23.523Z,16.25
2022-11-14T09:00:51.997Z,16.27
2022-11-14T09:03:19.123Z,16.27
2022-11-14T09:05:52.684Z,16.29
2022-11-14T09:08:20.321Z,16.29
2022-11-14T09:10:47.424Z,16.30
2022-11-14T09:13:14.509Z,16.32
2022-11-14T09:15:42.889Z,16.32
2022-11-14T09:18:11.320Z,16.34
2022-11-14T09:20:40.274Z,16.35
2022-11-14T09:23:07.683Z,16.34
2022-11-14T09:25:35.706Z,16.35
2022-11-14T09:28:07.530Z,16.36
2022-11-14T09:30:36.969Z,16.36
2022-11-14T09:33:11.121Z,16.38
2022-11-14T09:35:38.936Z,16.38
2022-11-14T09:38:09.995Z,16.42
2022-11-14T09:40:54.915Z,16.39
2022-11-14T09:43:53.936Z,16.42
2022-11-14T09:46:31.834Z,16.43
2022-11-14T09:48:59.096Z,16.42
2022-11-14T09:51:33.216Z,16.44
2022-11-14T09:54:12.050Z,16.44
2022-11-14T09:56:39.051Z,16.45
2022-11-14T09:59:11.822Z,16.47
2022-11-14T10:01:50.646Z,16.47
2022-11-14T10:04:29.403Z,16.46
2022-11-14T10:07:13.683Z,16.48
2022-11-14T10:09:59.329Z,16.49
2022-11-14T10:12:52.440Z,16.48
2022-11-14T10:15:48.367Z,16.47
2022-11-14T10:18:38.904Z,16.47
2022-11-14T10:21:53.307Z,16.50
2022-11-14T10:24:32.896Z,16.52
2022-11-14T10:27:19.713Z,16.53
2022-11-14T10:30:06.320Z,16.54
2022-11-14T10:32:55.206Z,16.56
2022-11-14T10:35:48.587Z,16.55
2022-11-14T10:38:39.014Z,16.55
2022-11-14T10:41:08.255Z,16.57
2022-11-14T10:43:49.623Z,16.59
2022-11-14T10:46:40.508Z,16.62
2022-11-14T10:49:21.139Z,16.60
2022-11-14T10:51:56.894Z,16.60
2022-11-14T10:55:04.484Z,16.60
2022-11-14T10:57:32.464Z,16.59
2022-11-14T10:59:59.382Z,16.62
2022-11-14T11:02:26.380Z,16.61
2022-11-14T11:04:53.337Z,16.60
2022-11-14T11:07:45.148Z,16.62
2022-11-14T11:10:41.160Z,16.62
2022-11-14T11:13:15.665Z,16.62
2022-11-14T11:15:43.171Z,16.64
2022-11-14T11:18:35.275Z,16.65
2022-11-14T11:21:03.810Z,16.67
2022-11-14T11:23:30.941Z,16.65
2022-11-14T11:26:07.776Z,16.67
2022-11-14T11:28:37.090Z,16.68
2022-11-14T11:31:10.493Z,16.67
2022-11-14T11:33:39.642Z,16.68
2022-11-14T11:36:20.128Z,16.68
2022-11-14T11:38:49.206Z,16.70
2022-11-14T11:42:07.732Z,16.70
2022-11-14T11:44:31.783Z,16.71
2022-11-14T11:47:03.106Z,16.70
2022-11-14T11:49:54.278Z,16.70
2022-11-14T11:52:32.661Z,16.71
2022-11-14T11:55:05.782Z,16.72
2022-11-14T11:57:51.558Z,16.73
2022-11-14T12:00:21.826Z,16.76
2022-11-14T12:02:53.913Z,16.74
2022-11-14T12:05:29.771Z,16.75
2022-11-14T12:08:12.687Z,16.74
2022-11-14T12:10:42.722Z,16.74
2022-11-14T12:13:46.852Z,16.74
2022-11-14T12:16:59.713Z,16.74
2022-11-14T12:19:29.612Z,16.76
2022-11-14T12:22:21.154Z,16.77
2022-11-14T12:25:18.775Z,16.78
2022-11-14T12:28:15.486Z,16.79
2022-11-14T12:30:49.780Z,16.79
2022-11-14T12:33:39.731Z,16.78
2022-11-14T12:36:10.848Z,16.80
2022-11-14T12:38:50.992Z,16.77
2022-11-14T12:41:34.926Z,16.80
2022-11-14T12:44:39.776Z,16.79
2022-11-14T12:47:06.773Z,16.82
2022-11-14T12:49:47.614Z,16.83
2022-11-14T12:52:44.968Z,16.85
2022-11-14T12:55:26.960Z,16.84
2022-11-14T12:58:10.451Z,16.80
2022-11-14T13:01:29.519Z,16.81
2022-11-14T13:05:09.054Z,16.82
2022-11-14T13:07:48.637Z,16.83
2022-11-14T13:10:44.765Z,16.81
2022-11-14T13:13:36.066Z,16.81
2022-11-14T13:16:22.508Z,16.84
2022-11-14T13:19:39.151Z,16.83
2022-11-14T13:22:11.813Z,16.83
2022-11-14T13:24:59.834Z,16.85
2022-11-14T13:28:05.435Z,16.84
2022-11-14T13:30:19.987Z,16.86
2022-11-14T13:32:46.820Z,16.86
2022-11-14T13:35:51.514Z,16.85
2022-11-14T13:38:46.494Z,16.86
2022-11-14T13:41:48.882Z,16.87
2022-11-14T13:44:36.512Z,16.87
2022-11-14T13:48:01.467Z,16.87
2022-11-14T13:50:40.402Z,16.87
2022-11-14T13:53:19.964Z,16.89
2022-11-14T13:56:01.099Z,16.90
2022-11-14T13:58:39.688Z,16.91
2022-11-14T14:01:29.101Z,16.91
2022-11-14T14:04:20.993Z,16.92
2022-11-14T14:07:07.964Z,16.93
2022-11-14T14:10:24.612Z,16.93
2022-11-14T14:12:58.716Z,16.93
2022-11-14T14:15:35.579Z,16.94
2022-11-14T14:18:38.520Z,16.93
2022-11-14T14:21:40.269Z,16.93
2022-11-14T14:24:18.233Z,16.94
2022-11-14T14:26:59.442Z,16.94
2022-11-14T14:29:56.778Z,16.93
2022-11-14T14:32:25.027Z,16.94
2022-11-14T14:34:53.926Z,16.93
2022-11-14T14:37:27.925Z,16.94
2022-11-14T14:40:03.717Z,16.93
2022-11-14T14:42:40.710Z,16.95
2022-11-14T14:45:22.431Z,16.94
2022-11-14T14:48:06.779Z,16.93
2022-11-14T14:50:49.530Z,16.94
2022-11-14T14:53:21.745Z,16.95
2022-11-14T14:55:58.828Z,16.95
2022-11-14T14:58:30.673Z,16.95
2022-11-14T15:01:13.420Z,16.95
2022-11-14T15:03:45.821Z,16.97
2022-11-14T15:06:38.158Z,16.97
2022-11-14T15:09:22.034Z,16.96
2022-11-14T15:11:53.118Z,16.96
2022-11-14T15:14:27.806Z,16.96
2022-11-14T15:16:56.347Z,16.95
2022-11-14T15:19:37.941Z,16.92
2022-11-14T15:22:22.834Z,16.92
2022-11-14T15:25:13.390Z,16.92
2022-11-14T15:27:51.486Z,16.92
2022-11-14T15:30:25.961Z,16.93
2022-11-14T15:33:02.509Z,16.92
2022-11-14T15:35:40.419Z,16.90
2022-11-14T15:38:37.327Z,16.90
2022-11-14T15:41:28.117Z,16.90
2022-11-14T15:44:01.874Z,16.90
2022-11-14T15:46:37.728Z,16.90
2022-11-14T15:49:26.882Z,16.90
2022-11-14T15:51:59.845Z,16.89
2022-11-14T15:54:32.983Z,16.91
2022-11-14T15:57:13.490Z,16.89
2022-11-14T15:59:40.621Z,16.90
2022-11-14T16:02:28.278Z,11.19
2022-11-14T16:04:57.545Z,10.39
2022-11-14T16:07:24.717Z,10.16
2022-11-14T16:09:53.657Z,10.06
2022-11-14T16:12:20.629Z,9.98
2022-11-14T16:14:47.704Z,9.97
2022-11-14T16:17:17.687Z,9.97
2022-11-14T16:19:45.075Z,9.96
2022-11-14T16:22:17.072Z,9.89
2022-11-14T16:24:44.218Z,9.88
2022-11-14T16:27:11.324Z,9.95
2022-11-14T16:29:38.879Z,9.90
2022-11-14T16:32:09.891Z,9.86
2022-11-14T16:34:37.072Z,9.86
2022-11-14T16:37:04.130Z,9.83
2022-11-14T16:39:31.237Z,9.86
2022-11-14T16:42:11.377Z,9.88
2022-11-14T16:44:42.722Z,9.84
2022-11-14T16:47:15.001Z,9.83
2022-11-14T16:49:42.008Z,9.90
2022-11-14T16:52:10.923Z,9.84
2022-11-14T16:54:38.677Z,9.84
2022-11-14T16:57:05.680Z,9.79
2022-11-14T16:59:32.783Z,9.84
2022-11-14T17:02:02.407Z,9.83
2022-11-14T17:04:29.493Z,9.86
2022-11-14T17:06:56.658Z,9.82
2022-11-14T17:09:23.689Z,9.85
2022-11-14T17:11:50.841Z,9.82
2022-11-14T17:14:17.892Z,9.86
2022-11-14T17:16:46.878Z,9.84
2022-11-14T17:19:14.211Z,9.86
2022-11-14T17:21:41.276Z,9.87
2022-11-14T17:24:08.324Z,9.89
2022-11-14T17:26:36.743Z,9.88
2022-11-14T17:29:04.922Z,9.89
2022-11-14T17:31:37.570Z,9.86
2022-11-14T17:34:08.606Z,9.97
2022-11-14T17:36:35.731Z,9.89
2022-11-14T17:39:02.920Z,9.84
2022-11-14T17:41:31.409Z,9.87
2022-11-14T17:44:01.897Z,9.90
2022-11-14T17:46:30.085Z,9.87
2022-11-14T17:48:59.063Z,9.82
2022-11-14T17:51:26.076Z,9.85
2022-11-14T17:53:53.534Z,9.77
2022-11-14T17:56:25.959Z,9.91
2022-11-14T17:58:54.044Z,9.91
2022-11-14T18:01:24.679Z,9.92
2022-11-14T18:03:51.819Z,9.85
2022-11-14T18:06:20.837Z,9.85
2022-11-14T18:08:48.555Z,9.77
2022-11-14T18:11:17.723Z,9.84
2022-11-14T18:13:44.929Z,9.84
2022-11-14T18:16:20.379Z,9.94
2022-11-14T18:18:47.414Z,9.90
2022-11-14T18:21:20.310Z,9.88
2022-11-14T18:23:55.544Z,9.82
2022-11-14T18:26:27.607Z,9.81
2022-11-14T18:29:01.078Z,9.88
2022-11-14T18:31:28.743Z,9.90
2022-11-14T18:33:56.578Z,9.89
2022-11-14T18:36:24.342Z,9.98
2022-11-14T18:38:51.607Z,9.87
2022-11-14T18:41:21.581Z,9.88
2022-11-14T18:43:48.962Z,9.95
2022-11-14T18:46:19.138Z,9.91
2022-11-14T18:48:49.635Z,9.88
2022-11-14T18:51:23.944Z,9.93
2022-11-14T18:53:55.409Z,9.94
2022-11-14T18:56:25.401Z,9.92
2022-11-14T18:58:55.328Z,9.98
2022-11-14T19:01:26.466Z,9.97
2022-11-14T19:03:57.745Z,9.96
2022-11-14T19:06:25.418Z,9.97
2022-11-14T19:09:02.729Z,9.93
2022-11-14T19:11:50.382Z,9.97
2022-11-14T19:14:17.980Z,9.95
2022-11-14T19:16:45.011Z,9.94
2022-11-14T19:19:12.318Z,9.96
2022-11-14T19:21:40.395Z,9.94
2022-11-14T19:24:08.499Z,9.96
2022-11-14T19:26:35.533Z,9.96
2022-11-14T19:29:05.942Z,9.91
2022-11-14T19:31:33.814Z,9.92
2022-11-14T19:34:01.214Z,9.96
2022-11-14T19:36:57.715Z,9.92
2022-11-14T19:39:15.493Z,9.98
2022-11-14T19:41:42.585Z,9.96
2022-11-14T19:44:09.681Z,9.99
2022-11-14T19:46:36.874Z,9.96
2022-11-14T19:49:04.820Z,9.94
2022-11-14T19:51:32.949Z,9.96
2022-11-14T19:54:02.051Z,10.02
2022-11-14T19:56:29.030Z,9.99
2022-11-14T19:58:56.641Z,9.97
2022-11-14T20:01:28.586Z,10.02
2022-11-14T20:03:59.125Z,9.99
2022-11-14T20:06:31.088Z,10.03
2022-11-14T20:09:00.840Z,9.98
2022-11-14T20:11:30.492Z,10.01
2022-11-14T20:13:59.159Z,10.02
2022-11-14T20:16:30.230Z,10.01
2022-11-14T20:19:00.646Z,10.06
2022-11-14T20:21:32.026Z,10.00
2022-11-14T20:23:59.346Z,10.01
2022-11-14T20:26:27.059Z,10.00
2022-11-14T20:28:54.788Z,10.01
2022-11-14T20:31:28.196Z,10.01
2022-11-14T20:33:56.326Z,10.02
2022-11-14T20:36:26.113Z,10.03
2022-11-14T20:38:53.589Z,10.02
2022-11-14T20:41:21.860Z,10.05
2022-11-14T20:43:49.067Z,10.00
2022-11-14T20:46:21.620Z,9.99
2022-11-14T20:48:49.330Z,9.99
2022-11-14T20:51:22.622Z,10.02
2022-11-14T20:53:54.831Z,10.04
2022-11-14T20:56:22.838Z,10.05
2022-11-14T20:58:53.646Z,10.05
2022-11-14T21:01:21.236Z,10.04
2022-11-14T21:03:48.940Z,10.05
2022-11-14T21:06:16.987Z,10.03
2022-11-14T21:08:44.330Z,10.07
2022-11-14T21:11:15.830Z,10.00
2022-11-14T21:13:58.971Z,10.03
2022-11-14T21:16:31.959Z,10.04
2022-11-14T21:19:00.224Z,10.12
2022-11-14T21:21:28.529Z,10.05
2022-11-14T21:23:56.608Z,10.07
2022-11-14T21:26:32.191Z,10.08
2022-11-14T21:29:05.862Z,10.06
2022-11-14T21:31:42.555Z,10.04
2022-11-14T21:34:15.560Z,10.06
2022-11-14T21:36:45.550Z,10.05
2022-11-14T21:39:14.922Z,10.12
2022-11-14T21:41:43.640Z,10.07
2022-11-14T21:44:13.666Z,10.13
2022-11-14T21:46:41.347Z,10.04
2022-11-14T21:49:09.210Z,10.06
2022-11-14T21:51:36.317Z,10.09
2022-11-14T21:54:03.479Z,10.09
2022-11-14T21:56:34.069Z,10.09
2022-11-14T21:59:14.403Z,10.09
2022-11-14T22:02:01.814Z,10.07
2022-11-14T22:04:29.235Z,10.09
2022-11-14T22:06:56.346Z,10.09
2022-11-14T22:09:23.444Z,10.09
2022-11-14T22:11:50.410Z,10.09
2022-11-14T22:14:17.467Z,10.07
2022-11-14T22:16:44.547Z,10.10
2022-11-14T22:19:11.510Z,10.09
2022-11-14T22:21:38.580Z,10.08
2022-11-14T22:24:06.154Z,10.08
2022-11-14T22:26:36.455Z,10.07
2022-11-14T22:29:03.412Z,10.09
2022-11-14T22:31:30.465Z,10.10
2022-11-14T22:33:58.732Z,10.08
2022-11-14T22:36:27.036Z,10.10
2022-11-14T22:38:56.410Z,10.10
2022-11-14T22:41:33.419Z,10.10
2022-11-14T22:44:01.494Z,10.12
2022-11-14T22:46:29.310Z,10.15
2022-11-14T22:48:58.196Z,10.14
2022-11-14T22:51:28.833Z,10.14
2022-11-14T22:53:58.057Z,10.14
2022-11-14T22:56:28.687Z,10.18
2022-11-14T22:58:56.378Z,10.17
2022-11-14T23:01:29.707Z,10.20
2022-11-14T23:04:03.813Z,10.16
2022-11-14T23:06:34.306Z,10.16
2022-11-14T23:09:03.113Z,10.18
2022-11-14T23:11:32.600Z,10.18
2022-11-14T23:14:01.057Z,10.20
2022-11-14T23:16:31.769Z,10.22
2022-11-14T23:19:01.857Z,10.22
2022-11-14T23:21:33.950Z,10.20
2022-11-14T23:24:04.733Z,10.25
2022-11-14T23:26:33.056Z,10.24
2022-11-14T23:29:00.537Z,10.24
2022-11-14T23:31:27.738Z,10.24
2022-11-14T23:33:57.816Z,10.25
2022-11-14T23:36:25.246Z,10.27
2022-11-14T23:38:53.682Z,10.27
2022-11-14T23:41:25.492Z,10.26
2022-11-14T23:43:52.959Z,10.28
2022-11-14T23:46:19.989Z,10.28
2022-11-14T23:48:46.931Z,10.31
2022-11-14T23:51:13.973Z,10.31
2022-11-14T23:53:41.724Z,10.31
2022-11-14T23:56:13.293Z,10.32
2022-11-14T23:58:40.695Z,10.34
